createdAt,value
2018-11-05T00:00:54.765Z,95013.1
2018-11-05T00:01:56.929Z,95013.7
2018-11-05T00:02:59.064Z,95014.7
2018-11-05T00:04:00.689Z,95017
2018-11-05T00:05:02.846Z,95016.9
2018-11-05T00:06:05.011Z,95015.5
2018-11-05T00:07:07.448Z,95011.4
2018-11-05T00:08:09.334Z,95006.6
2018-11-05T00:09:11.767Z,94999.9
2018-11-05T00:10:13.934Z,95002.6
2018-11-05T00:11:16.090Z,95003.4
2018-11-05T00:12:18.521Z,95004.4
2018-11-05T00:13:20.411Z,95003.9
2018-11-05T00:14:22.576Z,95001.3
2018-11-05T00:15:24.726Z,95005
2018-11-05T00:16:27.159Z,95002.3
2018-11-05T00:17:29.596Z,95001.8
2018-11-05T00:18:31.737Z,95002.6
2018-11-05T00:19:33.895Z,95006
2018-11-05T00:20:35.754Z,95004.8
2018-11-05T00:21:37.903Z,95001.9
2018-11-05T00:22:39.794Z,94996.8
2018-11-05T00:23:41.668Z,94997.6
2018-11-05T00:24:44.103Z,94993.8
2018-11-05T00:25:46.582Z,94996.1
2018-11-05T00:26:47.907Z,94993.3
2018-11-05T00:27:50.069Z,94998.1
2018-11-05T00:28:51.924Z,94999.1
2018-11-05T00:29:54.339Z,95001.4
2018-11-05T00:30:56.499Z,94999.4
2018-11-05T00:31:58.367Z,94999.2
2018-11-05T00:33:00.526Z,94996.7
2018-11-05T00:34:02.687Z,94997.4
2018-11-05T00:35:04.847Z,94993.8
2018-11-05T00:36:07.009Z,95001.8
2018-11-05T00:37:09.441Z,94998.4
2018-11-05T00:38:11.332Z,95002.9
2018-11-05T00:39:13.757Z,94999.2
2018-11-05T00:40:15.912Z,94995.7
2018-11-05T00:41:18.081Z,94997.6
2018-11-05T00:42:20.239Z,94993.7
2018-11-05T00:43:22.385Z,94995.9
2018-11-05T00:44:24.536Z,95001.3
2018-11-05T00:45:26.534Z,95004.3
2018-11-05T00:46:28.717Z,95001.1
2018-11-05T00:47:30.590Z,94993.8
2018-11-05T00:48:32.744Z,94990.1
2018-11-05T00:49:35.164Z,94986.4
2018-11-05T00:50:37.317Z,94986.5
2018-11-05T00:51:40.197Z,94979.3
2018-11-05T00:52:42.082Z,94979.1
2018-11-05T00:53:43.965Z,94979.4
2018-11-05T00:54:45.838Z,94976.1
2018-11-05T00:55:48.270Z,94981.3
2018-11-05T00:56:50.427Z,94982.8
2018-11-05T00:57:52.570Z,94983.8
2018-11-05T00:58:54.727Z,94989.9
2018-11-05T00:59:56.919Z,94994.2
2018-11-05T01:00:59.349Z,94989.8
2018-11-05T01:02:01.779Z,94989.3
2018-11-05T01:03:03.940Z,94984.9
2018-11-05T01:04:05.796Z,94982.8
2018-11-05T01:05:07.686Z,94979.4
2018-11-05T01:06:09.568Z,94977
2018-11-05T01:07:10.883Z,94974.8
2018-11-05T01:08:13.047Z,94971.6
2018-11-05T01:09:15.185Z,94971.1
2018-11-05T01:10:17.346Z,94968.1
2018-11-05T01:11:19.507Z,94970.2
2018-11-05T01:12:21.938Z,94972.6
2018-11-05T01:13:24.381Z,94972.1
2018-11-05T01:14:26.505Z,94968
2018-11-05T01:15:28.675Z,94965
2018-11-05T01:16:30.817Z,94964.7
2018-11-05T01:17:33.240Z,94960.3
2018-11-05T01:18:35.676Z,94962.7
2018-11-05T01:19:37.828Z,94960.6
2018-11-05T01:20:40.255Z,94961.9
2018-11-05T01:21:42.435Z,94956.3
2018-11-05T01:22:44.859Z,94963.1
2018-11-05T01:23:46.735Z,94968.2
2018-11-05T01:24:49.158Z,94975.1
2018-11-05T01:25:51.334Z,94979.5
2018-11-05T01:26:53.755Z,94982.5
2018-11-05T01:27:55.909Z,94981.8
2018-11-05T01:28:58.345Z,94980.5
2018-11-05T01:30:00.504Z,94975.3
2018-11-05T01:31:02.665Z,94974.9
2018-11-05T01:32:04.819Z,94972.1
2018-11-05T01:33:06.969Z,94969
2018-11-05T01:34:09.108Z,94965.4
2018-11-05T01:35:10.977Z,94958.9
2018-11-05T01:36:12.843Z,94955.4
2018-11-05T01:37:15.267Z,94952.1
2018-11-05T01:38:17.410Z,94943
2018-11-05T01:39:19.845Z,94941.7
2018-11-05T01:40:22.013Z,94938
2018-11-05T01:41:24.169Z,94936
2018-11-05T01:42:26.330Z,94940.5
2018-11-05T01:43:28.217Z,94936.2
2018-11-05T01:44:30.645Z,94933.5
2018-11-05T01:45:33.078Z,94926.6
2018-11-05T01:46:34.949Z,94923.1
2018-11-05T01:47:37.374Z,94921.7
2018-11-05T01:48:39.798Z,94919.3
2018-11-05T01:49:41.956Z,94919.7
2018-11-05T01:50:44.385Z,94918.9
2018-11-05T01:51:46.817Z,94923.1
2018-11-05T01:52:49.238Z,94921.4
2018-11-05T01:53:51.666Z,94924.4
2018-11-05T01:54:53.813Z,94927.2
2018-11-05T01:55:55.945Z,94921.8
2018-11-05T01:56:58.107Z,94916.9
2018-11-05T01:58:00.528Z,94922.9
2018-11-05T01:59:02.987Z,94918.3
2018-11-05T02:00:05.140Z,94915.7
2018-11-05T02:01:07.306Z,94916.6
2018-11-05T02:02:09.469Z,94913.6
2018-11-05T02:03:11.059Z,94913.3
2018-11-05T02:04:13.201Z,94915
2018-11-05T02:05:15.361Z,94912.5
2018-11-05T02:06:17.513Z,94915.1
2018-11-05T02:07:19.108Z,94913.5
2018-11-05T02:08:21.235Z,94913.5
2018-11-05T02:09:22.832Z,94907.6
2018-11-05T02:10:25.391Z,94909
2018-11-05T02:11:27.548Z,94916.3
2018-11-05T02:12:29.975Z,94914.3
2018-11-05T02:13:32.635Z,94916.9
2018-11-05T02:14:35.206Z,94914.4
2018-11-05T02:15:37.368Z,94911.6
2018-11-05T02:16:39.539Z,94906.3
2018-11-05T02:17:41.693Z,94911.5
2018-11-05T02:18:44.109Z,94914.6
2018-11-05T02:19:45.419Z,94916.6
2018-11-05T02:20:47.551Z,94917.8
2018-11-05T02:21:49.701Z,94914.2
2018-11-05T02:22:51.839Z,94911.6
2018-11-05T02:23:54.271Z,94909.1
2018-11-05T02:24:56.698Z,94910.8
2018-11-05T02:25:58.599Z,94906.2
2018-11-05T02:27:00.615Z,94909.3
2018-11-05T02:28:02.835Z,94911.7
2018-11-05T02:29:04.979Z,94908.4
2018-11-05T02:30:06.578Z,94910.2
2018-11-05T02:31:08.721Z,94915
2018-11-05T02:32:10.870Z,94911
2018-11-05T02:33:13.294Z,94905.7
2018-11-05T02:34:15.445Z,94905.2
2018-11-05T02:35:17.599Z,94908.1
2018-11-05T02:36:20.039Z,94904.2
2018-11-05T02:37:22.479Z,94903.4
2018-11-05T02:38:24.982Z,94899
2018-11-05T02:39:26.853Z,94897.2
2018-11-05T02:40:29.017Z,94898
2018-11-05T02:41:31.174Z,94893.4
2018-11-05T02:42:33.609Z,94900.5
2018-11-05T02:43:36.037Z,94899.7
2018-11-05T02:44:38.465Z,94899.5
2018-11-05T02:45:40.620Z,94898.9
2018-11-05T02:46:42.489Z,94894.1
2018-11-05T02:47:44.919Z,94902.2
2018-11-05T02:48:46.807Z,94903.2
2018-11-05T02:49:48.699Z,94899.5
2018-11-05T02:50:50.291Z,94902.2
2018-11-05T02:51:52.191Z,94904.4
2018-11-05T02:52:54.609Z,94904.4
2018-11-05T02:53:57.032Z,94905.5
2018-11-05T02:54:59.486Z,94901.9
2018-11-05T02:56:01.928Z,94897
2018-11-05T02:57:04.357Z,94893.8
2018-11-05T02:58:06.790Z,94898.9
2018-11-05T02:59:09.218Z,94887
2018-11-05T03:00:11.639Z,94897.8
2018-11-05T03:01:14.071Z,94888.4
2018-11-05T03:02:16.239Z,94893.8
2018-11-05T03:03:18.581Z,94895
2018-11-05T03:04:20.809Z,94902.6
2018-11-05T03:05:22.963Z,94901.3
2018-11-05T03:06:24.815Z,94902.4
2018-11-05T03:07:26.978Z,94888.4
2018-11-05T03:08:28.861Z,94895.7
2018-11-05T03:09:31.017Z,94891.2
2018-11-05T03:10:32.897Z,94898.6
2018-11-05T03:11:35.043Z,94899.8
2018-11-05T03:12:37.236Z,94899.2
2018-11-05T03:13:39.387Z,94902.5
2018-11-05T03:14:40.974Z,94909.3
2018-11-05T03:15:42.595Z,94907.9
2018-11-05T03:16:44.752Z,94906.1
2018-11-05T03:17:46.891Z,94907.4
2018-11-05T03:18:49.323Z,94904.1
2018-11-05T03:19:51.735Z,94907.6
2018-11-05T03:20:53.604Z,94900.1
2018-11-05T03:21:56.037Z,94896.4
2018-11-05T03:22:57.921Z,94891
2018-11-05T03:24:00.350Z,94889.4
2018-11-05T03:25:02.781Z,94887.1
2018-11-05T03:26:04.635Z,94896
2018-11-05T03:27:06.786Z,94900.5
2018-11-05T03:28:08.930Z,94900.8
2018-11-05T03:29:11.350Z,94907.1
2018-11-05T03:30:13.219Z,94899.7
2018-11-05T03:31:15.649Z,94892.5
2018-11-05T03:32:17.812Z,94884.5
2018-11-05T03:33:20.239Z,94890.7
2018-11-05T03:34:22.397Z,94892.4
2018-11-05T03:35:24.538Z,94888.3
2018-11-05T03:36:26.145Z,94891.8
2018-11-05T03:37:28.306Z,94898.8
2018-11-05T03:38:30.169Z,94891.2
2018-11-05T03:39:32.599Z,94887.6
2018-11-05T03:40:34.480Z,94881.9
2018-11-05T03:41:36.624Z,94881.7
2018-11-05T03:42:38.770Z,94882
2018-11-05T03:43:40.355Z,94888.5
2018-11-05T03:44:42.239Z,94894.1
2018-11-05T03:45:44.672Z,94900.7
2018-11-05T03:46:47.086Z,94906.8
2018-11-05T03:47:49.527Z,94904.8
2018-11-05T03:48:51.680Z,94903.3
2018-11-05T03:49:53.838Z,94898.6
2018-11-05T03:50:56.270Z,94896.2
2018-11-05T03:51:58.473Z,94896.3
2018-11-05T03:53:00.921Z,94900.2
2018-11-05T03:54:03.357Z,94898.3
2018-11-05T03:55:05.768Z,94891
2018-11-05T03:56:08.649Z,94892
2018-11-05T03:57:10.621Z,94890.2
2018-11-05T03:58:13.053Z,94893.3
2018-11-05T03:59:14.909Z,94893.1
2018-11-05T04:00:17.086Z,94890.3
2018-11-05T04:01:19.509Z,94887.5
2018-11-05T04:02:21.932Z,94890.2
2018-11-05T04:03:23.981Z,94882.1
2018-11-05T04:04:26.394Z,94884.5
2018-11-05T04:05:28.810Z,94884.9
2018-11-05T04:06:30.957Z,94890.2
2018-11-05T04:07:33.382Z,94896.6
2018-11-05T04:08:35.273Z,94899.9
2018-11-05T04:09:37.736Z,94901.4
2018-11-05T04:10:39.611Z,94908.1
2018-11-05T04:11:42.035Z,94903.9
2018-11-05T04:12:43.919Z,94900
2018-11-05T04:13:46.344Z,94902.2
2018-11-05T04:14:48.777Z,94896.3
2018-11-05T04:15:51.076Z,94891.7
2018-11-05T04:16:53.271Z,94893.3
2018-11-05T04:17:55.703Z,94890.1
2018-11-05T04:18:57.279Z,94889.5
2018-11-05T04:19:59.418Z,94887
2018-11-05T04:21:01.576Z,94885.4
2018-11-05T04:22:04.019Z,94889.6
2018-11-05T04:23:06.158Z,94889.2
2018-11-05T04:24:08.306Z,94884.9
2018-11-05T04:25:10.784Z,94885.9
2018-11-05T04:26:13.208Z,94881
2018-11-05T04:27:15.101Z,94875
2018-11-05T04:28:17.248Z,94869.3
2018-11-05T04:29:19.126Z,94866.5
2018-11-05T04:30:20.996Z,94862.4
2018-11-05T04:31:22.607Z,94858.8
2018-11-05T04:32:25.037Z,94864.6
2018-11-05T04:33:27.157Z,94851.4
2018-11-05T04:34:29.018Z,94845.2
2018-11-05T04:35:31.148Z,94849.6
2018-11-05T04:36:33.638Z,94843.8
2018-11-05T04:37:35.532Z,94849.3
2018-11-05T04:38:37.150Z,94851
2018-11-05T04:39:39.320Z,94850.9
2018-11-05T04:40:40.913Z,94851.7
2018-11-05T04:41:42.529Z,94853.9
2018-11-05T04:42:44.696Z,94858.9
2018-11-05T04:43:46.612Z,94856
2018-11-05T04:44:48.488Z,94859.1
2018-11-05T04:45:50.921Z,94859.1
2018-11-05T04:46:52.820Z,94860.9
2018-11-05T04:47:54.680Z,94859.1
2018-11-05T04:48:57.107Z,94860.3
2018-11-05T04:49:58.715Z,94865.4
2018-11-05T04:51:00.301Z,94859.1
2018-11-05T04:52:02.730Z,94857.5
2018-11-05T04:53:04.880Z,94859.6
2018-11-05T04:54:07.036Z,94857.1
2018-11-05T04:55:09.175Z,94857.7
2018-11-05T04:56:11.605Z,94853.7
2018-11-05T04:57:13.770Z,94853.6
2018-11-05T04:58:15.925Z,94855.1
2018-11-05T04:59:17.531Z,94858.7
2018-11-05T05:00:19.673Z,94861.7
2018-11-05T05:01:21.537Z,94854.6
2018-11-05T05:02:23.700Z,94851.5
2018-11-05T05:03:25.890Z,94852.5
2018-11-05T05:04:28.515Z,94853.3
2018-11-05T05:05:30.681Z,94853.2
2018-11-05T05:06:33.107Z,94851.5
2018-11-05T05:07:35.261Z,94851.8
2018-11-05T05:08:37.697Z,94852.7
2018-11-05T05:09:39.857Z,94846.4
2018-11-05T05:10:42.011Z,94848.8
2018-11-05T05:11:43.904Z,94849.9
2018-11-05T05:12:45.772Z,94849
2018-11-05T05:13:47.905Z,94849.8
2018-11-05T05:14:50.057Z,94852.9
2018-11-05T05:15:51.667Z,94854.7
2018-11-05T05:16:53.826Z,94857.2
2018-11-05T05:17:56.257Z,94853.6
2018-11-05T05:18:58.407Z,94857.5
2018-11-05T05:19:59.436Z,94857.4
2018-11-05T05:21:01.869Z,94856.2
2018-11-05T05:22:04.023Z,94862
2018-11-05T05:23:07.533Z,94852.6
2018-11-05T05:24:09.510Z,94858.3
2018-11-05T05:25:12.019Z,94856.7
2018-11-05T05:26:13.889Z,94859.6
2018-11-05T05:27:16.039Z,94861.1
2018-11-05T05:28:18.479Z,94856.6
2018-11-05T05:29:20.636Z,94854.3
2018-11-05T05:30:22.491Z,94857.3
2018-11-05T05:31:23.821Z,94855
2018-11-05T05:32:25.969Z,94858.6
2018-11-05T05:33:28.233Z,94857.6
2018-11-05T05:34:30.781Z,94859.6
2018-11-05T05:35:33.215Z,94859.9
2018-11-05T05:36:35.108Z,94863
2018-11-05T05:37:36.957Z,94857.8
2018-11-05T05:38:38.845Z,94855.8
2018-11-05T05:39:41.277Z,94853.5
2018-11-05T05:40:43.961Z,94848.8
2018-11-05T05:41:46.499Z,94852.5
2018-11-05T05:42:48.930Z,94850.4
2018-11-05T05:43:51.365Z,94856.4
2018-11-05T05:44:53.521Z,94854
2018-11-05T05:45:55.949Z,94855.2
2018-11-05T05:46:58.101Z,94852.4
2018-11-05T05:48:00.524Z,94855.2
2018-11-05T05:49:02.701Z,94856.5
2018-11-05T05:50:05.483Z,94856.1
2018-11-05T05:51:07.758Z,94858.3
2018-11-05T05:52:09.359Z,94859.2
2018-11-05T05:53:11.789Z,94854
2018-11-05T05:54:13.677Z,94855.5
2018-11-05T05:55:16.109Z,94856.3
2018-11-05T05:56:18.280Z,94854.4
2018-11-05T05:57:20.438Z,94854.2
2018-11-05T05:58:22.597Z,94852.6
2018-11-05T05:59:24.199Z,94857.2
2018-11-05T06:00:26.359Z,94860.4
2018-11-05T06:01:28.788Z,94859.9
2018-11-05T06:02:30.940Z,94862.9
2018-11-05T06:03:33.353Z,94856.2
2018-11-05T06:04:35.779Z,94852.3
2018-11-05T06:05:37.948Z,94844.6
2018-11-05T06:06:41.362Z,94848.8
2018-11-05T06:07:43.404Z,94849
2018-11-05T06:08:45.829Z,94856.4
2018-11-05T06:09:48.258Z,94856.3
2018-11-05T06:10:50.698Z,94857.7
2018-11-05T06:11:52.871Z,94855.8
2018-11-05T06:12:54.499Z,94858.3
2018-11-05T06:13:56.638Z,94859.3
2018-11-05T06:14:58.535Z,94865.6
2018-11-05T06:16:01.474Z,94861.4
2018-11-05T06:17:04.119Z,94867.6
2018-11-05T06:18:06.007Z,94865.4
2018-11-05T06:19:07.882Z,94866.6
2018-11-05T06:20:09.511Z,94870.7
2018-11-05T06:21:11.363Z,94867.2
2018-11-05T06:22:12.949Z,94864.9
2018-11-05T06:23:15.113Z,94862.1
2018-11-05T06:24:17.329Z,94864.2
2018-11-05T06:25:19.231Z,94867
2018-11-05T06:26:21.404Z,94866.8
2018-11-05T06:27:23.830Z,94863.1
2018-11-05T06:28:26.184Z,94865.4
2018-11-05T06:29:28.523Z,94858.6
2018-11-05T06:30:30.952Z,94856.3
2018-11-05T06:31:33.399Z,94862.3
2018-11-05T06:32:35.269Z,94868
2018-11-05T06:33:37.439Z,94876.2
2018-11-05T06:34:39.520Z,94879.3
2018-11-05T06:35:41.420Z,94876.2
2018-11-05T06:36:43.591Z,94875.3
2018-11-05T06:37:45.742Z,94870.7
2018-11-05T06:38:47.895Z,94869.4
2018-11-05T06:39:50.073Z,94874.1
2018-11-05T06:40:51.958Z,94871.3
2018-11-05T06:41:54.558Z,94872.4
2018-11-05T06:42:56.904Z,94875.1
2018-11-05T06:43:59.202Z,94867.7
2018-11-05T06:45:01.188Z,94873.9
2018-11-05T06:46:03.405Z,94868.8
2018-11-05T06:47:05.577Z,94872.8
2018-11-05T06:48:07.189Z,94873.8
2018-11-05T06:49:09.618Z,94880.3
2018-11-05T06:50:11.778Z,94878.4
2018-11-05T06:51:14.200Z,94882.1
2018-11-05T06:52:16.627Z,94880.1
2018-11-05T06:53:19.052Z,94878
2018-11-05T06:54:21.222Z,94872.2
2018-11-05T06:55:23.644Z,94869.8
2018-11-05T06:56:25.499Z,94860.1
2018-11-05T06:57:27.174Z,94860.4
2018-11-05T06:58:28.727Z,94855.8
2018-11-05T06:59:30.897Z,94855.9
2018-11-05T07:00:32.490Z,94863
2018-11-05T07:01:34.681Z,94862.9
2018-11-05T07:02:37.699Z,94858.9
2018-11-05T07:03:40.406Z,94865.3
2018-11-05T07:04:42.833Z,94863.1
2018-11-05T07:05:45.483Z,94869.2
2018-11-05T07:06:46.879Z,94869.7
2018-11-05T07:07:49.305Z,94875.3
2018-11-05T07:08:51.734Z,94869.5
2018-11-05T07:09:53.809Z,94870.2
2018-11-05T07:10:56.007Z,94867.8
2018-11-05T07:11:57.328Z,94871.7
2018-11-05T07:12:59.766Z,94867
2018-11-05T07:14:02.191Z,94866.1
2018-11-05T07:15:04.622Z,94863.3
2018-11-05T07:16:06.769Z,94865.6
2018-11-05T07:17:09.194Z,94859.8
2018-11-05T07:18:11.266Z,94859.4
2018-11-05T07:19:14.101Z,94859.8
2018-11-05T07:20:17.099Z,94866.4
2018-11-05T07:21:18.977Z,94873.6
2018-11-05T07:22:20.851Z,94876.3
2018-11-05T07:23:23.015Z,94869.8
2018-11-05T07:24:24.912Z,94870.7
2018-11-05T07:25:27.055Z,94870.9
2018-11-05T07:26:29.652Z,94870.3
2018-11-05T07:27:32.019Z,94866.2
2018-11-05T07:28:33.531Z,94864.7
2018-11-05T07:29:35.409Z,94866.1
2018-11-05T07:30:37.288Z,94869.1
2018-11-05T07:31:39.713Z,94876.2
2018-11-05T07:32:41.856Z,94877.9
2018-11-05T07:33:44.359Z,94883.7
2018-11-05T07:34:47.028Z,94880.2
2018-11-05T07:35:49.169Z,94884.3
2018-11-05T07:36:51.353Z,94892.6
2018-11-05T07:37:53.247Z,94892.3
2018-11-05T07:38:55.682Z,94896.2
2018-11-05T07:39:57.555Z,94890.4
2018-11-05T07:41:00.000Z,94883.7
2018-11-05T07:42:01.868Z,94880.3
2018-11-05T07:43:04.028Z,94880.2
2018-11-05T07:44:06.188Z,94876.9
2018-11-05T07:45:08.257Z,94877.1
2018-11-05T07:46:09.857Z,94876
2018-11-05T07:47:12.062Z,94869.4
2018-11-05T07:48:14.482Z,94870.9
2018-11-05T07:49:16.640Z,94863.8
2018-11-05T07:50:19.688Z,94861.8
2018-11-05T07:51:22.500Z,94859.7
2018-11-05T07:52:24.625Z,94857
2018-11-05T07:53:26.766Z,94853.2
2018-11-05T07:54:28.909Z,94856.9
2018-11-05T07:55:31.342Z,94852.8
2018-11-05T07:56:33.809Z,94862.8
2018-11-05T07:57:35.970Z,94861.6
2018-11-05T07:58:38.406Z,94865.6
2018-11-05T07:59:40.556Z,94867.3
2018-11-05T08:00:42.432Z,94868.1
2018-11-05T08:01:44.289Z,94871.4
2018-11-05T08:02:45.739Z,94879.2
2018-11-05T08:03:47.554Z,94888.5
2018-11-05T08:04:49.986Z,94888.7
2018-11-05T08:05:52.410Z,94888.5
2018-11-05T08:06:54.570Z,94885.7
2018-11-05T08:07:56.446Z,94886.1
2018-11-05T08:08:58.600Z,94881.5
2018-11-05T08:10:00.734Z,94881.2
2018-11-05T08:11:02.888Z,94880.8
2018-11-05T08:12:05.051Z,94884.8
2018-11-05T08:13:07.199Z,94892.9
2018-11-05T08:14:09.162Z,94900.1
2018-11-05T08:15:11.577Z,94899
2018-11-05T08:16:14.044Z,94893.4
2018-11-05T08:17:16.196Z,94890.1
2018-11-05T08:18:18.361Z,94888.4
2018-11-05T08:19:20.518Z,94893.3
2018-11-05T08:20:21.827Z,94889.6
2018-11-05T08:21:23.996Z,94883.8
2018-11-05T08:22:25.862Z,94876.3
2018-11-05T08:23:28.000Z,94876.3
2018-11-05T08:24:29.881Z,94872.2
2018-11-05T08:25:32.313Z,94869.2
2018-11-05T08:26:33.916Z,94868.9
2018-11-05T08:27:36.333Z,94871
2018-11-05T08:28:38.509Z,94875
2018-11-05T08:29:40.665Z,94870.6
2018-11-05T08:30:43.090Z,94872
2018-11-05T08:31:45.258Z,94879.6
2018-11-05T08:32:47.430Z,94880.7
2018-11-05T08:33:49.574Z,94877.4
2018-11-05T08:34:52.001Z,94873
2018-11-05T08:35:54.440Z,94877.7
2018-11-05T08:36:56.602Z,94875.8
2018-11-05T08:37:58.756Z,94875.2
2018-11-05T08:39:00.911Z,94872.4
2018-11-05T08:40:02.862Z,94871.6
2018-11-05T08:41:04.729Z,94875.7
2018-11-05T08:42:06.617Z,94881
2018-11-05T08:43:08.776Z,94879.1
2018-11-05T08:44:10.934Z,94877.6
2018-11-05T08:45:13.102Z,94880.5
2018-11-05T08:46:15.536Z,94881.4
2018-11-05T08:47:17.392Z,94876.8
2018-11-05T08:48:19.272Z,94877.8
2018-11-05T08:49:21.407Z,94872.7
2018-11-05T08:50:24.340Z,94874.5
2018-11-05T08:51:29.154Z,94871.9
2018-11-05T08:52:30.145Z,94875
2018-11-05T08:53:32.299Z,94881.5
2018-11-05T08:54:34.475Z,94879.7
2018-11-05T08:55:36.640Z,94890
2018-11-05T08:56:39.080Z,94891.4
2018-11-05T08:57:41.755Z,94882.7
2018-11-05T08:58:43.598Z,94880.1
2018-11-05T08:59:45.753Z,94885
2018-11-05T09:00:48.305Z,94878.4
2018-11-05T09:01:50.194Z,94879.1
2018-11-05T09:02:52.089Z,94874.5
2018-11-05T09:03:54.279Z,94869.9
2018-11-05T09:04:55.989Z,94861.8
2018-11-05T09:05:58.238Z,94858.9
2018-11-05T09:07:00.115Z,94853.5
2018-11-05T09:08:02.558Z,94859.8
2018-11-05T09:09:04.446Z,94860.5
2018-11-05T09:10:07.356Z,94862.8
2018-11-05T09:11:10.976Z,94861.3
2018-11-05T09:12:15.185Z,94863.9
2018-11-05T09:13:17.528Z,94859.3
2018-11-05T09:14:19.951Z,94861.8
2018-11-05T09:15:22.398Z,94860.8
2018-11-05T09:16:24.818Z,94859
2018-11-05T09:17:27.250Z,94862.3
2018-11-05T09:18:29.406Z,94858.7
2018-11-05T09:19:31.552Z,94862.1
2018-11-05T09:20:33.451Z,94868.3
2018-11-05T09:21:35.620Z,94870.8
2018-11-05T09:22:37.778Z,94872.9
2018-11-05T09:23:40.217Z,94867.6
2018-11-05T09:24:42.633Z,94867.6
2018-11-05T09:25:45.079Z,94861.7
2018-11-05T09:26:47.509Z,94856.8
2018-11-05T09:27:50.356Z,94852.8
2018-11-05T09:28:52.918Z,94849.4
2018-11-05T09:29:54.855Z,94848.3
2018-11-05T09:30:56.779Z,94853
2018-11-05T09:31:58.908Z,94856.3
2018-11-05T09:33:01.053Z,94854.9
2018-11-05T09:34:02.915Z,94855.4
2018-11-05T09:35:04.806Z,94854.1
2018-11-05T09:36:06.683Z,94850
2018-11-05T09:37:08.856Z,94846.4
2018-11-05T09:38:11.008Z,94842.8
2018-11-05T09:39:13.451Z,94844
2018-11-05T09:40:15.599Z,94844.7
2018-11-05T09:41:17.753Z,94846.4
2018-11-05T09:42:19.911Z,94842.6
2018-11-05T09:43:21.804Z,94844.4
2018-11-05T09:44:24.225Z,94846.8
2018-11-05T09:45:26.652Z,94849.7
2018-11-05T09:46:29.075Z,94848.1
2018-11-05T09:47:31.498Z,94848.1
2018-11-05T09:48:33.930Z,94847.4
2018-11-05T09:49:36.265Z,94848.7
2018-11-05T09:50:38.510Z,94847.4
2018-11-05T09:51:40.733Z,94845.1
2018-11-05T09:52:43.167Z,94845.6
2018-11-05T09:53:45.325Z,94839.7
2018-11-05T09:54:47.195Z,94838.1
2018-11-05T09:55:49.633Z,94826.7
2018-11-05T09:56:51.790Z,94822.3
2018-11-05T09:57:54.221Z,94817.4
2018-11-05T09:58:56.130Z,94817
2018-11-05T09:59:58.577Z,94817.6
2018-11-05T10:01:00.465Z,94815.2
2018-11-05T10:02:02.601Z,94817
2018-11-05T10:03:05.850Z,94818.4
2018-11-05T10:04:08.743Z,94821.1
2018-11-05T10:05:12.840Z,94826.3
2018-11-05T10:06:15.289Z,94828.9
2018-11-05T10:07:16.904Z,94827.1
2018-11-05T10:08:18.876Z,94825.3
2018-11-05T10:09:21.027Z,94822.1
2018-11-05T10:10:24.025Z,94822.4
2018-11-05T10:11:26.364Z,94823.4
2018-11-05T10:12:28.227Z,94819.5
2018-11-05T10:13:30.668Z,94812.6
2018-11-05T10:14:33.105Z,94813.2
2018-11-05T10:15:35.530Z,94816.6
2018-11-05T10:16:37.954Z,94815.9
2018-11-05T10:17:39.836Z,94814.1
2018-11-05T10:18:42.260Z,94814.4
2018-11-05T10:19:44.689Z,94812.1
2018-11-05T10:20:47.127Z,94815.5
2018-11-05T10:21:49.292Z,94815.4
2018-11-05T10:22:51.186Z,94816.2
2018-11-05T10:23:53.068Z,94813.4
2018-11-05T10:24:56.708Z,94819.4
2018-11-05T10:25:59.333Z,94820.4
2018-11-05T10:27:00.938Z,94821.5
2018-11-05T10:28:02.792Z,94817.8
2018-11-05T10:29:05.219Z,94812.4
2018-11-05T10:30:07.094Z,94818.7
2018-11-05T10:31:09.265Z,94818
2018-11-05T10:32:11.432Z,94817
2018-11-05T10:33:13.964Z,94815.4
2018-11-05T10:34:16.111Z,94814.5
2018-11-05T10:35:18.586Z,94809.9
2018-11-05T10:36:20.436Z,94806.7
2018-11-05T10:37:22.587Z,94804.8
2018-11-05T10:38:25.128Z,94808.1
2018-11-05T10:39:27.609Z,94807.5
2018-11-05T10:40:29.651Z,94808.5
2018-11-05T10:41:31.691Z,94809.6
2018-11-05T10:42:34.116Z,94804
2018-11-05T10:43:36.279Z,94801.8
2018-11-05T10:44:38.190Z,94803.7
2018-11-05T10:45:40.601Z,94803
2018-11-05T10:46:43.021Z,94809.5
2018-11-05T10:47:45.190Z,94807.3
2018-11-05T10:48:47.364Z,94805.4
2018-11-05T10:49:49.521Z,94810.2
2018-11-05T10:50:51.952Z,94809
2018-11-05T10:51:54.525Z,94802.8
2018-11-05T10:52:56.925Z,94803.3
2018-11-05T10:53:59.391Z,94800.1
2018-11-05T10:55:01.016Z,94793.7
2018-11-05T10:56:03.186Z,94795.1
2018-11-05T10:57:05.720Z,94798.7
2018-11-05T10:58:08.513Z,94795.6
2018-11-05T10:59:11.098Z,94799.5
2018-11-05T11:00:13.257Z,94802.1
2018-11-05T11:01:15.418Z,94790.8
2018-11-05T11:02:17.078Z,94792.3
2018-11-05T11:03:19.528Z,94788.8
2018-11-05T11:04:21.419Z,94791
2018-11-05T11:05:23.614Z,94787.6
2018-11-05T11:06:26.040Z,94784.9
2018-11-05T11:07:28.475Z,94781.6
2018-11-05T11:08:30.634Z,94775.3
2018-11-05T11:09:32.938Z,94774.8
2018-11-05T11:10:35.173Z,94776.1
2018-11-05T11:11:37.317Z,94774.5
2018-11-05T11:12:39.461Z,94769.7
2018-11-05T11:13:41.341Z,94775
2018-11-05T11:14:42.963Z,94772.6
2018-11-05T11:15:44.550Z,94772.2
2018-11-05T11:16:46.703Z,94766.5
2018-11-05T11:17:48.857Z,94765.9
2018-11-05T11:18:50.488Z,94759.9
2018-11-05T11:19:52.353Z,94757
2018-11-05T11:20:53.948Z,94752.5
2018-11-05T11:21:56.274Z,94749.5
2018-11-05T11:22:57.865Z,94749.3
2018-11-05T11:24:00.013Z,94744.9
2018-11-05T11:25:02.166Z,94740.2
2018-11-05T11:26:04.311Z,94743.8
2018-11-05T11:27:06.199Z,94744.3
2018-11-05T11:28:08.579Z,94745.9
2018-11-05T11:29:10.359Z,94738.2
2018-11-05T11:30:12.389Z,94735.6
2018-11-05T11:31:14.243Z,94736.9
2018-11-05T11:32:16.125Z,94733.6
2018-11-05T11:33:17.997Z,94732.6
2018-11-05T11:34:20.228Z,94734.2
2018-11-05T11:35:22.055Z,94729.4
2018-11-05T11:36:24.036Z,94726.9
2018-11-05T11:37:26.290Z,94722.9
2018-11-05T11:38:28.444Z,94722.8
2018-11-05T11:39:30.607Z,94725.9
2018-11-05T11:40:32.502Z,94725.7
2018-11-05T11:41:34.088Z,94722
2018-11-05T11:42:35.990Z,94720.4
2018-11-05T11:43:38.438Z,94722.5
2018-11-05T11:44:40.387Z,94712.9
2018-11-05T11:45:42.633Z,94718.8
2018-11-05T11:46:44.532Z,94716.6
2018-11-05T11:47:46.961Z,94715.8
2018-11-05T11:48:49.126Z,94716.4
2018-11-05T11:49:51.291Z,94723.4
2018-11-05T11:50:53.461Z,94713.4
2018-11-05T11:51:55.042Z,94720.8
2018-11-05T11:52:57.467Z,94722.8
2018-11-05T11:53:59.475Z,94723.2
2018-11-05T11:55:01.930Z,94722.2
2018-11-05T11:56:03.547Z,94725.6
2018-11-05T11:57:05.460Z,94721.7
2018-11-05T11:58:07.350Z,94722
2018-11-05T11:59:10.030Z,94723.3
2018-11-05T12:00:11.951Z,94723.2
2018-11-05T12:01:14.122Z,94716.9
2018-11-05T12:02:16.896Z,94715.2
2018-11-05T12:03:19.179Z,94714.3
2018-11-05T12:04:21.609Z,94721.2
2018-11-05T12:05:24.678Z,94714.3
2018-11-05T12:06:26.764Z,94708.8
2018-11-05T12:07:28.915Z,94703.4
2018-11-05T12:08:31.361Z,94704.3
2018-11-05T12:09:33.220Z,94697.9
2018-11-05T12:10:35.639Z,94696.8
2018-11-05T12:11:37.509Z,94701.9
2018-11-05T12:12:39.936Z,94699.9
2018-11-05T12:13:42.110Z,94704.8
2018-11-05T12:14:44.379Z,94706.9
2018-11-05T12:15:46.979Z,94703
2018-11-05T12:16:49.410Z,94703.8
2018-11-05T12:17:51.297Z,94700
2018-11-05T12:18:53.457Z,94699.2
2018-11-05T12:19:55.888Z,94700.5
2018-11-05T12:20:58.326Z,94701.5
2018-11-05T12:22:00.192Z,94697.5
2018-11-05T12:23:02.348Z,94697.1
2018-11-05T12:24:04.779Z,94694.1
2018-11-05T12:25:07.344Z,94695.1
2018-11-05T12:26:09.298Z,94692.8
2018-11-05T12:27:11.455Z,94693.8
2018-11-05T12:28:13.069Z,94689.2
2018-11-05T12:29:15.508Z,94687.7
2018-11-05T12:30:17.968Z,94686.7
2018-11-05T12:31:19.584Z,94681.5
2018-11-05T12:32:21.728Z,94685.2
2018-11-05T12:33:23.888Z,94677.4
2018-11-05T12:34:25.515Z,94676.3
2018-11-05T12:35:27.950Z,94681.1
2018-11-05T12:36:30.396Z,94676.9
2018-11-05T12:37:32.580Z,94677.6